Data for 09/12/2005

Time Sea-Level Adjusted Pressure Absolute Pressure Temperature Relative Humidity Dew Point   
(mb) (inHg) (mb) (inHg) (C) (F) (%) (C) (F)
00:05 1019 30.09 848 25.04 5.9 42.5 56 -2.3 27.8
00:10 1019 30.09 848 25.04 5.8 42.4 56 -2.3 27.9
00:15 1019 30.09 848 25.04 5.6 42 57 -2.3 27.8
00:20 1019 30.09 848 25.04 5.5 41.9 56 -2.6 27.3
00:25 1019 30.09 848 25.04 5.7 42.3 56 -2.4 27.6
00:30 1019 30.09 848 25.04 5.7 42.3 55 -2.5 27.5
00:35 1019 30.09 848 25.04 5.8 42.4 54 -2.7 27.2
00:40 1019 30.09 848 25.04 5.9 42.6 54 -2.7 27.2
00:45 1019 30.09 848 25.04 5.4 41.7 56 -2.8 27
00:50 1019 30.09 848 25.04 5.2 41.3 55 -3.2 26.2
00:55 1019 30.09 848 25.04 5.3 41.5 56 -2.9 26.8
01:00 1019 30.09 848 25.04 5.2 41.4 53 -3.5 25.7
01:05 1019 30.09 848 25.04 6 42.7 52 -3 26.5
01:10 1019 30.09 848 25.04 6 42.8 51 -3.4 25.9
01:15 1019 30.09 848 25.04 5.6 42.1 55 -2.7 27.2
01:20 1019 30.09 848 25.04 5.1 41.2 59 -2.2 28
01:25 1019 30.09 848 25.04 4.4 39.9 61 -2.4 27.7
01:30 1019 30.09 848 25.04 4.6 40.2 58 -3 26.6
01:35 1019 30.09 848 25.04 4.8 40.7 56 -3.3 26.1
01:40 1019 30.09 848 25.04 5.5 41.8 54 -3.1 26.4
01:45 1019 30.09 848 25.04 5.3 41.5 57 -2.6 27.4
01:50 1019 30.09 848 25.04 5.2 41.3 56 -3 26.7
01:55 1019 30.09 848 25.04 5.2 41.3 56 -2.9 26.8
02:00 1019 30.09 848 25.04 5.3 41.6 56 -2.8 27
02:05 1019 30.09 848 25.04 5.3 41.6 54 -3.2 26.2
02:10 1019 30.09 848 25.04 5.5 41.8 56 -2.6 27.3
02:15 1019 30.09 848 25.04 5.1 41.1 57 -2.7 27.2
02:20 1019 30.09 848 25.04 5.1 41.2 53 -3.7 25.3
02:25 1019 30.09 848 25.04 5.8 42.4 53 -3.1 26.4
02:30 1019 30.09 848 25.04 5.8 42.5 52 -3.4 25.9
02:35 1019 30.09 848 25.04 5.8 42.4 53 -3 26.6
02:40 1019 30.09 848 25.04 5.3 41.6 54 -3.3 26.1
02:45 1018 30.06 848 25.04 5 41 55 -3.3 26.1
02:50 1018 30.06 848 25.04 4.7 40.5 56 -3.2 26.2
02:55 1018 30.06 848 25.04 4.6 40.3 56 -3.4 25.9
03:00 1018 30.06 848 25.04 4.5 40.1 57 -3.3 26
03:05 1018 30.06 848 25.04 4.6 40.3 56 -3.5 25.7
03:10 1019 30.09 848 25.04 4.8 40.7 55 -3.5 25.8
03:15 1019 30.09 848 25.04 5 41 54 -3.6 25.6
03:20 1019 30.09 848 25.04 5.2 41.3 55 -3 26.6
03:25 1019 30.09 848 25.04 4.8 40.6 57 -3.1 26.4
03:30 1019 30.09 848 25.04 4.5 40.1 56 -3.5 25.8
03:35 1019 30.09 848 25.04 4.6 40.2 56 -3.4 25.8
03:40 1019 30.09 848 25.04 4.7 40.5 56 -3.3 26
03:45 1019 30.09 848 25.04 4.5 40.1 58 -3.1 26.5
03:50 1019 30.09 848 25.04 4.2 39.6 58 -3.3 26.1
03:55 1019 30.09 848 25.04 4.1 39.4 57 -3.5 25.7
04:00 1019 30.09 848 25.04 4 39.3 58 -3.6 25.6
04:05 1019 30.09 848 25.04 4.2 39.5 57 -3.7 25.4
04:10 1018 30.06 848 25.04 4.3 39.7 57 -3.6 25.6
04:15 1018 30.06 848 25.04 4.4 39.9 57 -3.4 25.9
04:20 1018 30.06 848 25.04 4.4 40 56 -3.6 25.6
04:25 1019 30.09 848 25.04 4.8 40.6 54 -3.7 25.3
04:30 1019 30.09 848 25.04 4.7 40.4 56 -3.3 26.1
04:35 1018 30.06 848 25.04 4.2 39.6 58 -3.3 26.1
04:40 1018 30.06 848 25.04 4 39.2 58 -3.5 25.8
04:45 1018 30.06 848 25.04 4.1 39.5 59 -3.2 26.3
04:50 1018 30.06 847 25.01 4.4 39.8 57 -3.4 25.9
04:55 1018 30.06 847 25.01 4.3 39.8 57 -3.4 25.9
05:00 1018 30.06 847 25.01 4.2 39.6 57 -3.5 25.8
05:05 1018 30.06 847 25.01 4.2 39.6 57 -3.4 25.8
05:10 1018 30.06 847 25.01 4.4 39.8 56 -3.7 25.3
05:15 1018 30.06 847 25.01 4.4 39.9 59 -2.9 26.7
05:20 1018 30.06 847 25.01 3.9 39 61 -3 26.7
05:25 1018 30.06 847 25.01 3.9 38.9 61 -3 26.6
05:30 1018 30.06 847 25.01 4.3 39.7 58 -3.2 26.2
05:35 1018 30.06 847 25.01 4.9 40.8 54 -3.7 25.4
05:40 1018 30.06 847 25.01 5.4 41.7 52 -3.7 25.3
05:45 1018 30.06 847 25.01 5.5 41.9 52 -3.7 25.3
05:50 1018 30.06 847 25.01 5.6 42.1 51 -3.8 25.1
05:55 1018 30.06 847 25.01 5.7 42.3 51 -3.5 25.7
06:00 1018 30.06 847 25.01 5.6 42.1 53 -3.3 26.1
06:05 1018 30.06 847 25.01 5.5 41.9 53 -3.3 26
06:10 1018 30.06 847 25.01 5.4 41.6 56 -2.7 27.1
06:15 1018 30.06 847 25.01 4.9 40.9 60 -2.2 28
06:20 1018 30.06 847 25.01 4.8 40.6 60 -2.4 27.7
06:25 1018 30.06 847 25.01 4.9 40.8 61 -2.1 28.3
06:30 1018 30.06 847 25.01 5 41.1 60 -2 28.3
06:35 1018 30.06 847 25.01 4.8 40.6 62 -1.8 28.7
06:40 1018 30.06 847 25.01 4.5 40.2 64 -1.7 29
06:45 1018 30.06 847 25.01 4.6 40.3 64 -1.7 29
06:50 1018 30.06 847 25.01 4.7 40.5 62 -2 28.4
06:55 1018 30.06 847 25.01 4.7 40.4 62 -1.9 28.5
07:00 1018 30.06 847 25.01 4.4 39.9 65 -1.6 29.1
07:05 1018 30.06 847 25.01 4.1 39.5 69 -0.9 30.3
07:10 1018 30.06 847 25.01 3.9 39 69 -1.3 29.7
07:15 1018 30.06 847 25.01 4 39.2 66 -1.7 29
07:20 1018 30.06 847 25.01 4.2 39.5 67 -1.3 29.6
07:25 1018 30.06 847 25.01 4.4 39.8 66 -1.4 29.5
07:30 1018 30.06 847 25.01 4.5 40.2 66 -1.3 29.7
07:35 1018 30.06 848 25.04 4.7 40.4 66 -1.2 29.9
07:40 1018 30.06 848 25.04 4.8 40.6 65 -1.2 29.9
07:45 1018 30.06 848 25.04 4.7 40.5 65 -1.3 29.6
07:50 1018 30.06 848 25.04 4.5 40.2 66 -1.2 29.9
07:55 1018 30.06 847 25.01 4.4 39.9 69 -0.8 30.5
08:00 1018 30.06 847 25.01 4.3 39.7 71 -0.6 30.9
08:05 1018 30.06 847 25.01 4.4 40 64 -1.8 28.8
08:10 1018 30.06 847 25.01 4.7 40.4 65 -1.4 29.4
08:15 1018 30.06 847 25.01 4.7 40.5 62 -1.9 28.6
08:20 1018 30.06 847 25.01 4.8 40.7 64 -1.3 29.6
08:25 1018 30.06 847 25.01 4.8 40.7 65 -1.2 29.8
08:30 1018 30.06 847 25.01 4.9 40.8 62 -1.8 28.7
08:35 1018 30.06 847 25.01 5 41 66 -0.7 30.7
08:40 1018 30.06 847 25.01 5.1 41.2 64 -1.2 29.9
08:45 1018 30.06 847 25.01 5.2 41.3 65 -1 30.3
08:50 1018 30.06 847 25.01 5.4 41.7 62 -1.3 29.7
08:55 1018 30.06 847 25.01 5.6 42.1 63 -0.8 30.5
09:00 1018 30.06 848 25.04 5.9 42.7 59 -1.4 29.5
09:05 1018 30.06 848 25.04 6.2 43.1 57 -1.6 29.2
09:10 1018 30.06 848 25.04 6.4 43.5 56 -1.7 28.9
09:15 1018 30.06 848 25.04 6.7 44 56 -1.5 29.4
09:20 1018 30.06 848 25.04 7 44.6 55 -1.4 29.4
09:25 1018 30.06 848 25.04 7.4 45.2 52 -1.8 28.8
09:30 1018 30.06 847 25.01 7.7 45.8 52 -1.6 29.1
09:35 1018 30.06 847 25.01 8 46.3 47 -2.6 27.3
09:40 1018 30.06 847 25.01 8.2 46.7 48 -2.1 28.3
09:45 1018 30.06 847 25.01 8.3 46.9 46 -2.6 27.2
09:50 1018 30.06 847 25.01 8.4 47.1 45 -2.7 27.1
09:55 1018 30.06 847 25.01 8.5 47.3 48 -1.8 28.8
10:00 1018 30.06 847 25.01 8.7 47.7 50 -1.1 30.1
10:05 1018 30.06 847 25.01 8.8 47.9 49 -1.4 29.5
10:10 1018 30.06 847 25.01 8.9 48.1 49 -1.2 29.8
10:15 1018 30.06 847 25.01 9 48.3 50 -0.8 30.5
10:20 1018 30.06 847 25.01 9.2 48.5 49 -0.8 30.5
10:25 1018 30.06 847 25.01 9.3 48.7 50 -0.7 30.8
10:30 1018 30.06 847 25.01 9.4 48.9 50 -0.4 31.3
10:35 1018 30.06 847 25.01 9.5 49 50 -0.5 31.2
10:40 1018 30.06 847 25.01 9.4 48.9 50 -0.5 31
10:45 1018 30.06 847 25.01 9.2 48.6 51 -0.4 31.3
10:50 1018 30.06 847 25.01 9.3 48.7 50 -0.6 30.9
10:55 1018 30.06 847 25.01 9.4 48.9 50 -0.4 31.2
11:00 1018 30.06 847 25.01 9.2 48.6 50 -0.6 30.9
11:05 1018 30.06 847 25.01 9.1 48.4 48 -1.2 29.8
11:10 1018 30.06 847 25.01 9 48.2 48 -1.3 29.7
11:15 1018 30.06 847 25.01 9.3 48.7 48 -1.1 30
11:20 1018 30.06 847 25.01 9.8 49.6 45 -1.5 29.4
11:25 1018 30.06 847 25.01 10.1 50.1 45 -1.3 29.7
11:30 1018 30.06 847 25.01 10.3 50.5 44 -1.3 29.6
11:35 1018 30.06 847 25.01 10.3 50.5 43 -1.8 28.8
11:40 1018 30.06 847 25.01 9.9 49.8 45 -1.5 29.2
11:45 1018 30.06 847 25.01 10.2 50.4 43 -1.7 29
11:50 1018 30.06 847 25.01 10.5 50.9 43 -1.5 29.3
11:55 1018 30.06 847 25.01 10.7 51.3 44 -1 30.3
12:00 1018 30.06 847 25.01 10.9 51.6 43 -1.3 29.7
12:05 1018 30.06 847 25.01 10.8 51.5 43 -1.2 29.8
12:10 1018 30.06 847 25.01 10.9 51.5 44 -1 30.2
12:15 1018 30.06 847 25.01 10.9 51.7 43 -1 30.2
12:20 1018 30.06 847 25.01 10.9 51.6 44 -0.9 30.4
12:25 1018 30.06 847 25.01 10.9 51.6 44 -0.7 30.7
12:30 1018 30.06 847 25.01 11.2 52.1 44 -0.7 30.8
12:35 1018 30.06 847 25.01 11.1 51.9 45 -0.3 31.4
12:40 1018 30.06 847 25.01 11.6 52.8 43 -0.5 31.2
12:45 1018 30.06 847 25.01 11.9 53.4 42 -0.5 31
12:50 1018 30.06 847 25.01 12 53.5 41 -0.9 30.3
12:55 1018 30.06 847 25.01 11.5 52.6 44 -0.4 31.2
13:00 1018 30.06 847 25.01 11.4 52.5 44 -0.5 31.1
13:05 1018 30.06 847 25.01 11.6 52.9 44 -0.1 31.9
13:10 1018 30.06 847 25.01 12 53.7 42 -0.4 31.3
13:15 1018 30.06 847 25.01 12.2 53.9 41 -0.7 30.7
13:20 1017 30.03 847 25.01 12 53.6 42 -0.5 31.1
13:25 1017 30.03 847 25.01 12.1 53.8 41 -0.6 30.9
13:30 1018 30.06 847 25.01 12.2 53.9 42 -0.3 31.5
13:35 1018 30.06 847 25.01 12.4 54.2 41 -0.4 31.3
13:40 1018 30.06 847 25.01 12.5 54.5 40 -0.5 31
13:45 1018 30.06 847 25.01 12.6 54.7 39 -0.8 30.6
13:50 1018 30.06 847 25.01 12.8 55.1 38 -1 30.2
13:55 1018 30.06 847 25.01 12.6 54.7 39 -1 30.2
14:00 1017 30.03 847 25.01 12.9 55.1 37 -1.6 29.2
14:05 1017 30.03 847 25.01 12.9 55.1 38 -0.9 30.3
14:10 1017 30.03 847 25.01 13.3 56 36 -1.5 29.2
14:15 1017 30.03 847 25.01 13.7 56.6 33 -2.2 28
14:20 1017 30.03 847 25.01 14.1 57.4 33 -1.9 28.6
14:25 1017 30.03 847 25.01 14 57.2 32 -2.3 27.9
14:30 1017 30.03 846 24.98 14 57.2 32 -2.3 27.8
14:35 1017 30.03 846 24.98 14.2 57.6 32 -2.1 28.2
14:40 1017 30.03 846 24.98 14.6 58.2 31 -2.2 28
14:45 1017 30.03 846 24.98 14.7 58.5 31 -2 28.5
14:50 1017 30.03 846 24.98 14.7 58.5 31 -2.3 27.9
14:55 1017 30.03 846 24.98 14.4 58 30 -2.8 26.9
15:00 1017 30.03 846 24.98 14.9 58.8 30 -2.3 27.8
15:05 1017 30.03 846 24.98 15.2 59.4 29 -2.8 27
15:10 1017 30.03 846 24.98 15.5 59.9 29 -2.5 27.6
15:15 1017 30.03 846 24.98 15.6 60.1 29 -2.4 27.6
15:20 1017 30.03 846 24.98 15.8 60.5 28 -2.7 27.2
15:25 1017 30.03 846 24.98 15.4 59.7 29 -2.5 27.5
15:30 1017 30.03 846 24.98 15.1 59.1 28 -3.1 26.4
15:35 1017 30.03 846 24.98 14.9 58.9 29 -2.8 27
15:40 1017 30.03 846 24.98 15.8 60.4 26 -3.8 25.1
15:45 1017 30.03 846 24.98 16 60.7 26 -3.7 25.4
15:50 1017 30.03 846 24.98 16 60.7 26 -3.4 25.8
15:55 1017 30.03 846 24.98 16.3 61.3 27 -2.9 26.8
16:00 1017 30.03 846 24.98 16.5 61.7 26 -3.1 26.4
16:05 1016 30 846 24.98 16.4 61.5 26 -2.8 26.9
16:10 1016 30 846 24.98 16 60.8 28 -2.5 27.5
16:15 1016 30 846 24.98 16.4 61.5 26 -3.2 26.2
16:20 1016 30 846 24.98 16.3 61.3 26 -3 26.6
16:25 1016 30 846 24.98 16.3 61.3 27 -2.9 26.8
16:30 1016 30 846 24.98 15.3 59.5 28 -3.2 26.3
16:35 1016 30 846 24.98 15.8 60.4 27 -3.3 26
16:40 1016 30 846 24.98 16.4 61.4 26 -3 26.7
16:45 1016 30 846 24.98 15.5 60 28 -2.9 26.8
16:50 1016 30 846 24.98 15.6 60.1 27 -3 26.6
16:55 1016 30 846 24.98 15.8 60.4 27 -3.1 26.4
17:00 1016 30 846 24.98 15.3 59.5 29 -2.7 27.1
17:05 1016 30 846 24.98 14.5 58.1 30 -2.8 27
17:10 1016 30 846 24.98 13.9 57.1 30 -3.2 26.3
17:15 1016 30 846 24.98 13.8 56.9 30 -3.5 25.7
17:20 1016 30 846 24.98 14.1 57.4 30 -3.3 26.1
17:25 1016 30 846 24.98 14.4 57.8 30 -3 26.6
17:30 1017 30.03 846 24.98 14.6 58.3 30 -2.6 27.2
17:35 1017 30.03 846 24.98 14.7 58.4 29 -2.9 26.7
17:40 1017 30.03 846 24.98 14.8 58.6 30 -2.6 27.3
17:45 1017 30.03 846 24.98 14.3 57.7 32 -2.1 28.3
17:50 1017 30.03 846 24.98 13.8 56.8 33 -2.3 27.9
17:55 1017 30.03 846 24.98 13.3 55.9 35 -1.8 28.8
18:00 1017 30.03 846 24.98 12.9 55.2 35 -2 28.4
18:05 1017 30.03 846 24.98 13.2 55.7 35 -1.9 28.5
18:10 1017 30.03 846 24.98 13.3 56 35 -1.6 29
18:15 1017 30.03 846 24.98 13.6 56.4 34 -1.8 28.8
18:20 1017 30.03 846 24.98 13.7 56.7 35 -1.4 29.5
18:25 1017 30.03 846 24.98 13.7 56.7 37 -0.7 30.7
18:30 1017 30.03 846 24.98 13.4 56.1 38 -0.4 31.3
18:35 1017 30.03 846 24.98 13.1 55.5 39 -0.3 31.4
18:40 1017 30.03 847 25.01 12.8 55.1 40 -0.2 31.6
18:45 1017 30.03 847 25.01 12.6 54.6 42 -0 31.9
18:50 1018 30.06 847 25.01 12.2 54 43 -0 31.9
18:55 1018 30.06 847 25.01 12 53.7 43 -0 32
19:00 1018 30.06 847 25.01 11.9 53.5 44 0.2 32.3
19:05 1018 30.06 847 25.01 11.9 53.3 45 0.4 32.6
19:10 1018 30.06 847 25.01 11.7 53.1 46 0.6 33.1
19:15 1018 30.06 847 25.01 11.5 52.7 49 1.1 34
19:20 1018 30.06 847 25.01 11.3 52.3 51 1.5 34.7
19:25 1018 30.06 847 25.01 11 51.8 52 1.5 34.7
19:30 1018 30.06 847 25.01 11 51.9 52 1.7 35.1
19:35 1018 30.06 847 25.01 11 51.8 51 1.2 34.2
19:40 1018 30.06 848 25.04 11 51.9 49 0.9 33.6
19:45 1019 30.09 848 25.04 11.1 52 49 0.9 33.6
19:50 1019 30.09 848 25.04 11.2 52.1 50 1.2 34.2
19:55 1019 30.09 848 25.04 11.1 52 51 1.5 34.7
20:00 1019 30.09 848 25.04 10.8 51.5 52 1.5 34.7
20:05 1019 30.09 848 25.04 10.8 51.4 53 1.7 35
20:10 1019 30.09 848 25.04 10.5 50.9 54 1.6 35
20:15 1019 30.09 848 25.04 10.2 50.3 56 1.9 35.4
20:20 1019 30.09 848 25.04 9.9 49.8 58 2 35.7
20:25 1019 30.09 848 25.04 9.7 49.5 58 2 35.5
20:30 1019 30.09 848 25.04 9.6 49.4 59 2 35.6
20:35 1019 30.09 848 25.04 9.7 49.4 59 2.2 35.9
20:40 1019 30.09 848 25.04 9.6 49.2 61 2.4 36.4
20:45 1019 30.09 848 25.04 9.5 49 58 1.7 35
20:50 1019 30.09 848 25.04 9.4 49 60 2 35.6
20:55 1019 30.09 848 25.04 9.2 48.5 61 2 35.7
21:00 1019 30.09 848 25.04 8.8 47.8 62 1.9 35.3
21:05 1019 30.09 848 25.04 8.7 47.6 61 1.7 35
21:10 1019 30.09 848 25.04 8.7 47.7 61 1.6 34.9
21:15 1019 30.09 848 25.04 8.7 47.6 61 1.5 34.8
21:20 1019 30.09 848 25.04 8.6 47.5 61 1.6 34.9
21:25 1019 30.09 848 25.04 8.5 47.4 61 1.6 34.8
21:30 1019 30.09 848 25.04 8.4 47.2 62 1.6 34.8
21:35 1019 30.09 848 25.04 8.4 47.1 61 1.3 34.3
21:40 1019 30.09 848 25.04 8.3 47 63 1.6 34.9
21:45 1019 30.09 848 25.04 8 46.4 63 1.4 34.6
21:50 1019 30.09 848 25.04 7.8 46.1 64 1.5 34.7
21:55 1019 30.09 848 25.04 7.4 45.3 65 1.3 34.4
22:00 1019 30.09 848 25.04 7.4 45.3 64 1.1 34
22:05 1019 30.09 848 25.04 7.6 45.6 63 1 33.8
22:10 1019 30.09 848 25.04 7.6 45.7 64 1.2 34.1
22:15 1019 30.09 848 25.04 7.6 45.7 64 1.3 34.3
22:20 1019 30.09 849 25.07 7.6 45.6 64 1.2 34.2
22:25 1019 30.09 849 25.07 7.6 45.6 64 1.2 34.2
22:30 1019 30.09 849 25.07 7.6 45.7 64 1.2 34.2
22:35 1019 30.09 849 25.07 7.5 45.5 64 1.2 34.2
22:40 1019 30.09 849 25.07 7.6 45.6 64 1.1 34
22:45 1019 30.09 849 25.07 7.8 46 64 1.4 34.6
22:50 1019 30.09 849 25.07 7.8 46 65 1.6 34.9
22:55 1019 30.09 849 25.07 7.4 45.4 65 1.4 34.5
23:00 1019 30.09 849 25.07 7.3 45.2 66 1.5 34.6
23:05 1020 30.12 849 25.07 7.3 45.2 67 1.6 34.9
23:10 1020 30.12 849 25.07 7.3 45.2 66 1.5 34.7
23:15 1020 30.12 849 25.07 7.3 45.1 68 1.7 35.1
23:20 1020 30.12 849 25.07 7.2 45 66 1.4 34.5
23:25 1020 30.12 849 25.07 7.5 45.4 65 1.4 34.6
23:30 1020 30.12 849 25.07 7.8 46.1 65 1.6 35
23:35 1020 30.12 849 25.07 7.8 46.1 66 1.9 35.4
23:40 1020 30.12 849 25.07 7.6 45.7 67 2 35.6
23:45 1020 30.12 849 25.07 7.6 45.6 67 2 35.5
23:50 1020 30.12 849 25.07 7.6 45.7 67 1.9 35.5
23:55 1020 30.12 849 25.07 7.7 45.8 68 2.1 35.8
24:00 1020 30.12 849 25.07 7.6 45.6 68 2.1 35.7